sensor_id;sensor_type;location;lat;lon;timestamp;P1;durP1;ratioP1;P2;durP2;ratioP2
2488;SDS011;1255;48.716;9.124;2023-08-17T00:00:48;4.53;;;3.53;;
2488;SDS011;1255;48.716;9.124;2023-08-17T00:03:14;3.40;;;3.10;;
2488;SDS011;1255;48.716;9.124;2023-08-17T00:05:41;3.37;;;3.17;;
2488;SDS011;1255;48.716;9.124;2023-08-17T00:08:08;6.50;;;3.93;;
2488;SDS011;1255;48.716;9.124;2023-08-17T00:10:35;3.67;;;3.37;;
2488;SDS011;1255;48.716;9.124;2023-08-17T00:13:03;3.80;;;3.50;;
2488;SDS011;1255;48.716;9.124;2023-08-17T00:15:32;5.00;;;3.77;;
2488;SDS011;1255;48.716;9.124;2023-08-17T00:17:58;4.20;;;3.80;;
2488;SDS011;1255;48.716;9.124;2023-08-17T00:20:25;5.63;;;4.50;;
2488;SDS011;1255;48.716;9.124;2023-08-17T00:22:52;4.50;;;4.10;;
2488;SDS011;1255;48.716;9.124;2023-08-17T00:25:19;4.20;;;3.80;;
2488;SDS011;1255;48.716;9.124;2023-08-17T00:27:45;4.33;;;3.93;;
2488;SDS011;1255;48.716;9.124;2023-08-17T00:30:12;4.67;;;4.00;;
2488;SDS011;1255;48.716;9.124;2023-08-17T00:32:41;4.93;;;4.10;;
2488;SDS011;1255;48.716;9.124;2023-08-17T00:35:07;6.77;;;3.77;;
2488;SDS011;1255;48.716;9.124;2023-08-17T00:37:34;4.83;;;4.40;;
2488;SDS011;1255;48.716;9.124;2023-08-17T00:40:01;4.80;;;4.30;;
2488;SDS011;1255;48.716;9.124;2023-08-17T00:42:29;5.23;;;4.10;;
2488;SDS011;1255;48.716;9.124;2023-08-17T00:44:56;4.90;;;4.17;;
2488;SDS011;1255;48.716;9.124;2023-08-17T00:47:23;4.47;;;4.07;;
2488;SDS011;1255;48.716;9.124;2023-08-17T00:49:52;4.67;;;4.27;;
2488;SDS011;1255;48.716;9.124;2023-08-17T00:52:19;3.90;;;3.60;;
2488;SDS011;1255;48.716;9.124;2023-08-17T00:54:46;5.00;;;4.50;;
2488;SDS011;1255;48.716;9.124;2023-08-17T00:57:13;4.87;;;4.30;;
2488;SDS011;1255;48.716;9.124;2023-08-17T00:59:40;5.10;;;4.60;;
2488;SDS011;1255;48.716;9.124;2023-08-17T01:02:07;5.77;;;4.90;;
2488;SDS011;1255;48.716;9.124;2023-08-17T01:04:35;5.80;;;4.53;;
2488;SDS011;1255;48.716;9.124;2023-08-17T01:07:03;4.00;;;3.70;;
2488;SDS011;1255;48.716;9.124;2023-08-17T01:09:29;4.43;;;4.03;;
2488;SDS011;1255;48.716;9.124;2023-08-17T01:11:58;4.50;;;4.10;;
2488;SDS011;1255;48.716;9.124;2023-08-17T01:14:33;5.70;;;5.20;;
2488;SDS011;1255;48.716;9.124;2023-08-17T01:17:10;5.97;;;4.37;;
2488;SDS011;1255;48.716;9.124;2023-08-17T01:19:40;5.20;;;4.47;;
2488;SDS011;1255;48.716;9.124;2023-08-17T01:22:10;4.33;;;4.00;;
2488;SDS011;1255;48.716;9.124;2023-08-17T01:24:40;5.27;;;4.77;;
2488;SDS011;1255;48.716;9.124;2023-08-17T01:27:07;4.97;;;4.53;;
2488;SDS011;1255;48.716;9.124;2023-08-17T01:29:33;4.10;;;3.70;;
2488;SDS011;1255;48.716;9.124;2023-08-17T01:32:02;5.17;;;4.67;;
2488;SDS011;1255;48.716;9.124;2023-08-17T01:34:35;4.77;;;4.37;;
2488;SDS011;1255;48.716;9.124;2023-08-17T01:37:06;6.77;;;5.50;;
2488;SDS011;1255;48.716;9.124;2023-08-17T01:39:37;6.00;;;5.40;;
2488;SDS011;1255;48.716;9.124;2023-08-17T01:42:06;8.30;;;5.43;;
2488;SDS011;1255;48.716;9.124;2023-08-17T01:44:34;4.90;;;4.40;;
2488;SDS011;1255;48.716;9.124;2023-08-17T01:47:01;4.70;;;4.30;;
2488;SDS011;1255;48.716;9.124;2023-08-17T01:49:28;4.60;;;4.20;;
2488;SDS011;1255;48.716;9.124;2023-08-17T01:51:55;5.63;;;4.63;;
2488;SDS011;1255;48.716;9.124;2023-08-17T01:54:22;4.80;;;4.13;;
2488;SDS011;1255;48.716;9.124;2023-08-17T01:56:49;4.73;;;4.30;;
2488;SDS011;1255;48.716;9.124;2023-08-17T01:59:17;9.93;;;5.63;;
2488;SDS011;1255;48.716;9.124;2023-08-17T02:01:44;4.90;;;4.50;;
2488;SDS011;1255;48.716;9.124;2023-08-17T02:04:11;6.07;;;4.80;;
2488;SDS011;1255;48.716;9.124;2023-08-17T02:06:38;5.10;;;4.60;;
2488;SDS011;1255;48.716;9.124;2023-08-17T02:09:04;4.33;;;3.93;;
2488;SDS011;1255;48.716;9.124;2023-08-17T02:11:31;5.90;;;5.00;;
2488;SDS011;1255;48.716;9.124;2023-08-17T02:13:58;4.60;;;4.20;;
2488;SDS011;1255;48.716;9.124;2023-08-17T02:16:26;4.57;;;3.90;;
2488;SDS011;1255;48.716;9.124;2023-08-17T02:18:53;4.20;;;3.80;;
2488;SDS011;1255;48.716;9.124;2023-08-17T02:21:19;4.70;;;4.17;;
2488;SDS011;1255;48.716;9.124;2023-08-17T02:23:46;5.20;;;4.70;;
2488;SDS011;1255;48.716;9.124;2023-08-17T02:26:13;4.63;;;3.80;;
2488;SDS011;1255;48.716;9.124;2023-08-17T02:28:39;6.87;;;4.60;;
2488;SDS011;1255;48.716;9.124;2023-08-17T02:31:06;5.90;;;4.50;;
2488;SDS011;1255;48.716;9.124;2023-08-17T02:33:34;4.90;;;4.40;;
2488;SDS011;1255;48.716;9.124;2023-08-17T02:36:02;5.77;;;5.17;;
2488;SDS011;1255;48.716;9.124;2023-08-17T02:38:29;5.93;;;5.33;;
2488;SDS011;1255;48.716;9.124;2023-08-17T02:40:56;8.17;;;6.17;;
2488;SDS011;1255;48.716;9.124;2023-08-17T02:43:22;9.47;;;6.23;;
2488;SDS011;1255;48.716;9.124;2023-08-17T02:45:49;7.30;;;6.50;;
2488;SDS011;1255;48.716;9.124;2023-08-17T02:48:16;7.83;;;6.43;;
2488;SDS011;1255;48.716;9.124;2023-08-17T02:50:44;9.37;;;7.90;;
2488;SDS011;1255;48.716;9.124;2023-08-17T02:53:10;7.80;;;6.60;;
2488;SDS011;1255;48.716;9.124;2023-08-17T02:55:37;8.97;;;6.37;;
2488;SDS011;1255;48.716;9.124;2023-08-17T02:58:04;8.73;;;6.53;;
2488;SDS011;1255;48.716;9.124;2023-08-17T03:00:30;7.57;;;5.90;;
2488;SDS011;1255;48.716;9.124;2023-08-17T03:02:57;9.50;;;6.63;;
2488;SDS011;1255;48.716;9.124;2023-08-17T03:05:24;9.50;;;6.53;;
2488;SDS011;1255;48.716;9.124;2023-08-17T03:07:52;10.00;;;7.47;;
2488;SDS011;1255;48.716;9.124;2023-08-17T03:10:18;10.33;;;6.77;;
2488;SDS011;1255;48.716;9.124;2023-08-17T03:12:45;8.50;;;7.53;;
2488;SDS011;1255;48.716;9.124;2023-08-17T03:15:12;11.20;;;7.60;;
2488;SDS011;1255;48.716;9.124;2023-08-17T03:17:38;10.67;;;7.57;;
2488;SDS011;1255;48.716;9.124;2023-08-17T03:20:06;10.20;;;7.00;;
2488;SDS011;1255;48.716;9.124;2023-08-17T03:22:33;8.33;;;6.30;;
2488;SDS011;1255;48.716;9.124;2023-08-17T03:25:02;10.70;;;7.90;;
2488;SDS011;1255;48.716;9.124;2023-08-17T03:27:28;8.50;;;7.17;;
2488;SDS011;1255;48.716;9.124;2023-08-17T03:29:55;13.13;;;7.73;;
2488;SDS011;1255;48.716;9.124;2023-08-17T03:32:22;10.33;;;7.73;;
2488;SDS011;1255;48.716;9.124;2023-08-17T03:34:49;9.77;;;6.83;;
2488;SDS011;1255;48.716;9.124;2023-08-17T03:37:15;9.60;;;7.57;;
2488;SDS011;1255;48.716;9.124;2023-08-17T03:39:42;8.30;;;6.67;;
2488;SDS011;1255;48.716;9.124;2023-08-17T03:42:10;8.60;;;6.97;;
2488;SDS011;1255;48.716;9.124;2023-08-17T03:44:37;11.83;;;7.83;;
2488;SDS011;1255;48.716;9.124;2023-08-17T03:47:04;12.80;;;8.93;;
2488;SDS011;1255;48.716;9.124;2023-08-17T03:49:30;11.40;;;6.90;;
2488;SDS011;1255;48.716;9.124;2023-08-17T03:51:57;9.63;;;7.23;;
2488;SDS011;1255;48.716;9.124;2023-08-17T03:54:24;9.53;;;7.13;;
2488;SDS011;1255;48.716;9.124;2023-08-17T03:56:51;9.23;;;7.50;;
2488;SDS011;1255;48.716;9.124;2023-08-17T03:59:20;9.27;;;7.47;;
2488;SDS011;1255;48.716;9.124;2023-08-17T04:01:47;10.50;;;8.80;;
2488;SDS011;1255;48.716;9.124;2023-08-17T04:04:14;11.57;;;8.93;;
2488;SDS011;1255;48.716;9.124;2023-08-17T04:06:40;9.03;;;7.80;;
2488;SDS011;1255;48.716;9.124;2023-08-17T04:09:07;12.57;;;8.40;;
2488;SDS011;1255;48.716;9.124;2023-08-17T04:11:34;9.43;;;7.30;;
2488;SDS011;1255;48.716;9.124;2023-08-17T04:14:02;11.63;;;7.33;;
2488;SDS011;1255;48.716;9.124;2023-08-17T04:16:31;12.00;;;8.63;;
2488;SDS011;1255;48.716;9.124;2023-08-17T04:18:58;11.67;;;8.37;;
2488;SDS011;1255;48.716;9.124;2023-08-17T04:21:25;11.80;;;7.90;;
2488;SDS011;1255;48.716;9.124;2023-08-17T04:23:52;10.33;;;8.47;;
2488;SDS011;1255;48.716;9.124;2023-08-17T04:26:18;9.30;;;8.07;;
2488;SDS011;1255;48.716;9.124;2023-08-17T04:28:45;11.13;;;8.37;;
2488;SDS011;1255;48.716;9.124;2023-08-17T04:31:12;11.47;;;8.50;;
2488;SDS011;1255;48.716;9.124;2023-08-17T04:33:40;11.00;;;7.80;;
2488;SDS011;1255;48.716;9.124;2023-08-17T04:36:07;12.37;;;8.07;;
2488;SDS011;1255;48.716;9.124;2023-08-17T04:38:34;10.70;;;7.07;;
2488;SDS011;1255;48.716;9.124;2023-08-17T04:41:00;13.30;;;8.70;;
2488;SDS011;1255;48.716;9.124;2023-08-17T04:43:27;11.77;;;8.43;;
2488;SDS011;1255;48.716;9.124;2023-08-17T04:45:54;11.57;;;7.27;;
2488;SDS011;1255;48.716;9.124;2023-08-17T04:48:21;9.80;;;7.80;;
2488;SDS011;1255;48.716;9.124;2023-08-17T04:50:49;10.73;;;8.17;;
2488;SDS011;1255;48.716;9.124;2023-08-17T04:53:17;9.60;;;7.60;;
2488;SDS011;1255;48.716;9.124;2023-08-17T04:55:43;11.40;;;8.20;;
2488;SDS011;1255;48.716;9.124;2023-08-17T04:58:10;12.53;;;9.07;;
2488;SDS011;1255;48.716;9.124;2023-08-17T05:00:37;8.83;;;7.10;;
2488;SDS011;1255;48.716;9.124;2023-08-17T05:03:04;12.83;;;8.63;;
2488;SDS011;1255;48.716;9.124;2023-08-17T05:05:30;10.57;;;6.90;;
2488;SDS011;1255;48.716;9.124;2023-08-17T05:07:59;11.40;;;8.23;;
2488;SDS011;1255;48.716;9.124;2023-08-17T05:10:26;11.13;;;8.10;;
2488;SDS011;1255;48.716;9.124;2023-08-17T05:12:53;8.40;;;6.77;;
2488;SDS011;1255;48.716;9.124;2023-08-17T05:15:20;10.57;;;6.83;;
2488;SDS011;1255;48.716;9.124;2023-08-17T05:17:47;10.53;;;7.67;;
2488;SDS011;1255;48.716;9.124;2023-08-17T05:20:14;8.87;;;7.23;;
2488;SDS011;1255;48.716;9.124;2023-08-17T05:22:42;11.10;;;8.10;;
2488;SDS011;1255;48.716;9.124;2023-08-17T05:25:10;12.63;;;9.53;;
2488;SDS011;1255;48.716;9.124;2023-08-17T05:27:37;11.87;;;8.07;;
2488;SDS011;1255;48.716;9.124;2023-08-17T05:30:04;10.77;;;8.10;;
2488;SDS011;1255;48.716;9.124;2023-08-17T05:32:32;14.23;;;9.37;;
2488;SDS011;1255;48.716;9.124;2023-08-17T05:34:58;12.73;;;9.93;;
2488;SDS011;1255;48.716;9.124;2023-08-17T05:37:26;11.13;;;8.50;;
2488;SDS011;1255;48.716;9.124;2023-08-17T05:39:53;15.10;;;9.10;;
2488;SDS011;1255;48.716;9.124;2023-08-17T05:42:21;12.07;;;8.27;;
2488;SDS011;1255;48.716;9.124;2023-08-17T05:44:48;11.83;;;8.10;;
2488;SDS011;1255;48.716;9.124;2023-08-17T05:47:15;14.37;;;8.83;;
2488;SDS011;1255;48.716;9.124;2023-08-17T05:49:44;13.30;;;9.30;;
2488;SDS011;1255;48.716;9.124;2023-08-17T05:52:11;19.10;;;11.13;;
2488;SDS011;1255;48.716;9.124;2023-08-17T05:54:39;15.13;;;10.10;;
2488;SDS011;1255;48.716;9.124;2023-08-17T05:57:06;15.57;;;9.90;;
2488;SDS011;1255;48.716;9.124;2023-08-17T05:59:36;12.27;;;8.80;;
2488;SDS011;1255;48.716;9.124;2023-08-17T06:02:03;11.37;;;7.67;;
2488;SDS011;1255;48.716;9.124;2023-08-17T06:04:30;13.00;;;9.53;;
2488;SDS011;1255;48.716;9.124;2023-08-17T06:06:57;11.23;;;8.00;;
2488;SDS011;1255;48.716;9.124;2023-08-17T06:09:23;11.23;;;9.67;;
2488;SDS011;1255;48.716;9.124;2023-08-17T06:11:50;13.40;;;9.33;;
2488;SDS011;1255;48.716;9.124;2023-08-17T06:14:17;13.67;;;10.23;;
2488;SDS011;1255;48.716;9.124;2023-08-17T06:16:45;12.93;;;9.67;;
2488;SDS011;1255;48.716;9.124;2023-08-17T06:19:11;13.90;;;10.47;;
2488;SDS011;1255;48.716;9.124;2023-08-17T06:21:38;12.17;;;8.33;;
2488;SDS011;1255;48.716;9.124;2023-08-17T06:24:05;12.00;;;8.40;;
2488;SDS011;1255;48.716;9.124;2023-08-17T06:26:32;13.33;;;10.03;;
2488;SDS011;1255;48.716;9.124;2023-08-17T06:28:59;12.40;;;9.37;;
2488;SDS011;1255;48.716;9.124;2023-08-17T06:31:25;12.13;;;9.90;;
2488;SDS011;1255;48.716;9.124;2023-08-17T06:33:54;11.77;;;9.50;;
2488;SDS011;1255;48.716;9.124;2023-08-17T06:36:20;10.03;;;8.00;;
2488;SDS011;1255;48.716;9.124;2023-08-17T06:38:47;14.27;;;9.70;;
2488;SDS011;1255;48.716;9.124;2023-08-17T06:41:14;12.83;;;9.03;;
2488;SDS011;1255;48.716;9.124;2023-08-17T06:43:41;12.53;;;8.67;;
2488;SDS011;1255;48.716;9.124;2023-08-17T06:46:08;10.47;;;8.23;;
2488;SDS011;1255;48.716;9.124;2023-08-17T06:48:35;8.33;;;7.40;;
2488;SDS011;1255;48.716;9.124;2023-08-17T06:51:03;10.47;;;8.10;;
2488;SDS011;1255;48.716;9.124;2023-08-17T06:53:30;16.07;;;9.93;;
2488;SDS011;1255;48.716;9.124;2023-08-17T06:55:56;11.90;;;9.10;;
2488;SDS011;1255;48.716;9.124;2023-08-17T06:58:23;12.17;;;8.70;;
2488;SDS011;1255;48.716;9.124;2023-08-17T07:00:50;13.00;;;9.70;;
2488;SDS011;1255;48.716;9.124;2023-08-17T07:03:17;12.63;;;8.60;;
2488;SDS011;1255;48.716;9.124;2023-08-17T07:05:43;11.13;;;8.20;;
2488;SDS011;1255;48.716;9.124;2023-08-17T07:08:11;12.17;;;8.30;;
2488;SDS011;1255;48.716;9.124;2023-08-17T07:10:38;12.60;;;8.83;;
2488;SDS011;1255;48.716;9.124;2023-08-17T07:13:05;13.03;;;9.50;;
2488;SDS011;1255;48.716;9.124;2023-08-17T07:15:32;14.57;;;8.30;;
2488;SDS011;1255;48.716;9.124;2023-08-17T07:17:59;11.73;;;8.33;;
2488;SDS011;1255;48.716;9.124;2023-08-17T07:20:25;10.70;;;8.23;;
2488;SDS011;1255;48.716;9.124;2023-08-17T07:22:52;14.10;;;9.80;;
2488;SDS011;1255;48.716;9.124;2023-08-17T07:25:20;10.90;;;8.23;;
2488;SDS011;1255;48.716;9.124;2023-08-17T07:27:47;10.90;;;8.30;;
2488;SDS011;1255;48.716;9.124;2023-08-17T07:30:13;12.73;;;8.40;;
2488;SDS011;1255;48.716;9.124;2023-08-17T07:32:40;10.47;;;7.60;;
2488;SDS011;1255;48.716;9.124;2023-08-17T07:35:07;8.30;;;7.20;;
2488;SDS011;1255;48.716;9.124;2023-08-17T07:37:34;10.07;;;8.80;;
2488;SDS011;1255;48.716;9.124;2023-08-17T07:40:01;11.93;;;8.20;;
2488;SDS011;1255;48.716;9.124;2023-08-17T07:42:30;9.77;;;7.30;;
2488;SDS011;1255;48.716;9.124;2023-08-17T07:44:57;9.83;;;7.80;;
2488;SDS011;1255;48.716;9.124;2023-08-17T07:47:24;10.00;;;8.20;;
2488;SDS011;1255;48.716;9.124;2023-08-17T07:49:51;9.10;;;6.67;;
2488;SDS011;1255;48.716;9.124;2023-08-17T07:52:17;10.60;;;7.80;;
2488;SDS011;1255;48.716;9.124;2023-08-17T07:54:44;7.73;;;6.60;;
2488;SDS011;1255;48.716;9.124;2023-08-17T07:57:11;7.20;;;6.43;;
2488;SDS011;1255;48.716;9.124;2023-08-17T07:59:39;9.37;;;6.90;;
2488;SDS011;1255;48.716;9.124;2023-08-17T08:02:06;7.93;;;6.97;;
2488;SDS011;1255;48.716;9.124;2023-08-17T08:04:33;9.47;;;6.80;;
2488;SDS011;1255;48.716;9.124;2023-08-17T08:06:59;8.73;;;7.23;;
2488;SDS011;1255;48.716;9.124;2023-08-17T08:09:26;8.70;;;6.73;;
2488;SDS011;1255;48.716;9.124;2023-08-17T08:11:53;8.23;;;7.10;;
2488;SDS011;1255;48.716;9.124;2023-08-17T08:14:19;7.43;;;6.40;;
2488;SDS011;1255;48.716;9.124;2023-08-17T08:16:48;8.40;;;7.33;;
2488;SDS011;1255;48.716;9.124;2023-08-17T08:19:14;7.40;;;6.60;;
2488;SDS011;1255;48.716;9.124;2023-08-17T08:21:41;6.97;;;5.97;;
2488;SDS011;1255;48.716;9.124;2023-08-17T08:24:08;7.40;;;6.60;;
2488;SDS011;1255;48.716;9.124;2023-08-17T08:26:34;6.10;;;5.50;;
2488;SDS011;1255;48.716;9.124;2023-08-17T08:29:01;6.63;;;5.93;;
2488;SDS011;1255;48.716;9.124;2023-08-17T08:31:28;5.93;;;5.33;;
2488;SDS011;1255;48.716;9.124;2023-08-17T08:33:56;6.97;;;5.90;;
2488;SDS011;1255;48.716;9.124;2023-08-17T08:36:24;7.37;;;5.13;;
2488;SDS011;1255;48.716;9.124;2023-08-17T08:38:51;5.53;;;5.00;;
2488;SDS011;1255;48.716;9.124;2023-08-17T08:41:17;5.27;;;4.77;;
2488;SDS011;1255;48.716;9.124;2023-08-17T08:43:45;4.83;;;4.43;;
2488;SDS011;1255;48.716;9.124;2023-08-17T08:46:13;5.67;;;4.23;;
2488;SDS011;1255;48.716;9.124;2023-08-17T08:48:42;4.17;;;3.80;;
2488;SDS011;1255;48.716;9.124;2023-08-17T08:51:12;4.17;;;3.77;;
2488;SDS011;1255;48.716;9.124;2023-08-17T08:53:44;4.07;;;3.73;;
2488;SDS011;1255;48.716;9.124;2023-08-17T08:56:11;4.00;;;3.60;;
2488;SDS011;1255;48.716;9.124;2023-08-17T08:58:38;4.57;;;3.67;;
2488;SDS011;1255;48.716;9.124;2023-08-17T09:01:08;4.40;;;3.77;;
2488;SDS011;1255;48.716;9.124;2023-08-17T09:03:36;3.50;;;3.20;;
2488;SDS011;1255;48.716;9.124;2023-08-17T09:06:04;4.10;;;3.80;;
2488;SDS011;1255;48.716;9.124;2023-08-17T09:08:33;6.10;;;3.23;;
2488;SDS011;1255;48.716;9.124;2023-08-17T09:11:00;4.60;;;3.57;;
2488;SDS011;1255;48.716;9.124;2023-08-17T09:13:27;3.73;;;3.40;;
2488;SDS011;1255;48.716;9.124;2023-08-17T09:15:54;3.63;;;3.20;;
2488;SDS011;1255;48.716;9.124;2023-08-17T09:18:23;3.80;;;3.50;;
2488;SDS011;1255;48.716;9.124;2023-08-17T09:20:51;3.40;;;3.10;;
2488;SDS011;1255;48.716;9.124;2023-08-17T09:23:18;3.77;;;3.47;;
2488;SDS011;1255;48.716;9.124;2023-08-17T09:25:48;4.03;;;3.73;;
2488;SDS011;1255;48.716;9.124;2023-08-17T09:28:17;3.87;;;3.57;;
2488;SDS011;1255;48.716;9.124;2023-08-17T09:30:52;4.40;;;4.00;;
2488;SDS011;1255;48.716;9.124;2023-08-17T09:33:20;4.20;;;3.83;;
2488;SDS011;1255;48.716;9.124;2023-08-17T09:35:47;4.70;;;4.30;;
2488;SDS011;1255;48.716;9.124;2023-08-17T09:38:14;3.87;;;3.57;;
2488;SDS011;1255;48.716;9.124;2023-08-17T09:40:41;4.00;;;3.60;;
2488;SDS011;1255;48.716;9.124;2023-08-17T09:43:10;4.17;;;3.80;;
2488;SDS011;1255;48.716;9.124;2023-08-17T09:45:38;5.23;;;4.83;;
2488;SDS011;1255;48.716;9.124;2023-08-17T09:48:07;5.60;;;4.00;;
2488;SDS011;1255;48.716;9.124;2023-08-17T09:50:34;4.77;;;4.37;;
2488;SDS011;1255;48.716;9.124;2023-08-17T09:53:01;4.60;;;4.20;;
2488;SDS011;1255;48.716;9.124;2023-08-17T09:55:29;3.80;;;3.50;;
2488;SDS011;1255;48.716;9.124;2023-08-17T09:57:57;4.80;;;4.23;;
2488;SDS011;1255;48.716;9.124;2023-08-17T10:00:27;4.27;;;3.87;;
2488;SDS011;1255;48.716;9.124;2023-08-17T10:02:54;4.13;;;3.83;;
2488;SDS011;1255;48.716;9.124;2023-08-17T10:05:24;5.33;;;4.87;;
2488;SDS011;1255;48.716;9.124;2023-08-17T10:07:56;5.10;;;4.70;;
2488;SDS011;1255;48.716;9.124;2023-08-17T10:10:25;5.63;;;3.60;;
2488;SDS011;1255;48.716;9.124;2023-08-17T10:12:57;4.30;;;4.00;;
2488;SDS011;1255;48.716;9.124;2023-08-17T10:15:31;4.47;;;4.07;;
2488;SDS011;1255;48.716;9.124;2023-08-17T10:18:06;3.97;;;3.57;;
2488;SDS011;1255;48.716;9.124;2023-08-17T10:20:40;4.87;;;4.47;;
2488;SDS011;1255;48.716;9.124;2023-08-17T10:23:12;4.67;;;3.87;;
2488;SDS011;1255;48.716;9.124;2023-08-17T10:25:42;4.20;;;3.90;;
2488;SDS011;1255;48.716;9.124;2023-08-17T10:28:10;5.30;;;4.80;;
2488;SDS011;1255;48.716;9.124;2023-08-17T10:30:39;5.20;;;4.40;;
2488;SDS011;1255;48.716;9.124;2023-08-17T10:33:06;7.10;;;4.23;;
2488;SDS011;1255;48.716;9.124;2023-08-17T10:35:33;4.10;;;3.80;;
2488;SDS011;1255;48.716;9.124;2023-08-17T10:38:02;4.83;;;4.43;;
2488;SDS011;1255;48.716;9.124;2023-08-17T10:40:34;5.20;;;4.70;;
2488;SDS011;1255;48.716;9.124;2023-08-17T10:43:02;4.53;;;4.07;;
2488;SDS011;1255;48.716;9.124;2023-08-17T10:45:29;4.67;;;4.27;;
2488;SDS011;1255;48.716;9.124;2023-08-17T10:48:02;5.00;;;4.60;;
2488;SDS011;1255;48.716;9.124;2023-08-17T10:51:03;5.30;;;4.67;;
2488;SDS011;1255;48.716;9.124;2023-08-17T10:53:33;5.90;;;4.50;;
2488;SDS011;1255;48.716;9.124;2023-08-17T10:56:04;4.30;;;4.00;;
2488;SDS011;1255;48.716;9.124;2023-08-17T10:58:33;4.07;;;3.77;;
2488;SDS011;1255;48.716;9.124;2023-08-17T11:01:00;4.37;;;4.07;;
2488;SDS011;1255;48.716;9.124;2023-08-17T11:05:57;4.73;;;4.33;;
2488;SDS011;1255;48.716;9.124;2023-08-17T11:08:27;5.00;;;4.60;;
2488;SDS011;1255;48.716;9.124;2023-08-17T11:11:04;4.53;;;4.13;;
2488;SDS011;1255;48.716;9.124;2023-08-17T11:13:32;4.87;;;4.47;;
2488;SDS011;1255;48.716;9.124;2023-08-17T11:16:02;4.80;;;4.30;;
2488;SDS011;1255;48.716;9.124;2023-08-17T11:18:29;4.60;;;4.20;;
2488;SDS011;1255;48.716;9.124;2023-08-17T11:20:58;4.43;;;4.03;;
2488;SDS011;1255;48.716;9.124;2023-08-17T11:23:28;5.37;;;4.40;;
2488;SDS011;1255;48.716;9.124;2023-08-17T11:25:55;4.57;;;4.17;;
2488;SDS011;1255;48.716;9.124;2023-08-17T11:28:23;5.00;;;4.60;;
2488;SDS011;1255;48.716;9.124;2023-08-17T11:30:56;4.07;;;3.70;;
2488;SDS011;1255;48.716;9.124;2023-08-17T11:33:23;4.73;;;4.33;;
2488;SDS011;1255;48.716;9.124;2023-08-17T11:35:51;4.10;;;3.80;;
2488;SDS011;1255;48.716;9.124;2023-08-17T11:38:21;4.70;;;4.30;;
2488;SDS011;1255;48.716;9.124;2023-08-17T11:40:48;4.53;;;4.13;;
2488;SDS011;1255;48.716;9.124;2023-08-17T11:43:15;4.57;;;4.17;;
2488;SDS011;1255;48.716;9.124;2023-08-17T11:45:42;4.70;;;4.30;;
2488;SDS011;1255;48.716;9.124;2023-08-17T11:48:09;4.87;;;4.47;;
2488;SDS011;1255;48.716;9.124;2023-08-17T11:50:36;4.70;;;4.30;;
2488;SDS011;1255;48.716;9.124;2023-08-17T11:53:04;4.53;;;4.17;;
2488;SDS011;1255;48.716;9.124;2023-08-17T11:55:32;4.83;;;4.37;;
2488;SDS011;1255;48.716;9.124;2023-08-17T11:57:59;3.97;;;3.67;;
2488;SDS011;1255;48.716;9.124;2023-08-17T12:00:28;3.90;;;3.60;;
2488;SDS011;1255;48.716;9.124;2023-08-17T12:03:01;5.00;;;4.60;;
2488;SDS011;1255;48.716;9.124;2023-08-17T12:05:30;4.50;;;4.10;;
2488;SDS011;1255;48.716;9.124;2023-08-17T12:07:57;4.13;;;3.83;;
2488;SDS011;1255;48.716;9.124;2023-08-17T12:10:27;4.90;;;4.50;;
2488;SDS011;1255;48.716;9.124;2023-08-17T12:12:58;4.40;;;4.07;;
2488;SDS011;1255;48.716;9.124;2023-08-17T12:15:29;4.27;;;3.93;;
2488;SDS011;1255;48.716;9.124;2023-08-17T12:17:58;4.27;;;3.97;;
2488;SDS011;1255;48.716;9.124;2023-08-17T12:20:25;3.97;;;3.67;;
2488;SDS011;1255;48.716;9.124;2023-08-17T12:22:52;4.47;;;4.07;;
2488;SDS011;1255;48.716;9.124;2023-08-17T12:25:20;3.93;;;3.53;;
2488;SDS011;1255;48.716;9.124;2023-08-17T12:27:47;4.40;;;4.00;;
2488;SDS011;1255;48.716;9.124;2023-08-17T12:30:24;5.23;;;4.83;;
2488;SDS011;1255;48.716;9.124;2023-08-17T12:32:52;4.60;;;4.20;;
2488;SDS011;1255;48.716;9.124;2023-08-17T12:35:19;4.80;;;4.40;;
2488;SDS011;1255;48.716;9.124;2023-08-17T12:37:48;5.23;;;4.07;;
2488;SDS011;1255;48.716;9.124;2023-08-17T12:40:15;4.27;;;3.87;;
2488;SDS011;1255;48.716;9.124;2023-08-17T12:42:42;5.03;;;4.63;;
2488;SDS011;1255;48.716;9.124;2023-08-17T12:45:09;5.10;;;4.70;;
2488;SDS011;1255;48.716;9.124;2023-08-17T12:47:37;5.63;;;5.07;;
2488;SDS011;1255;48.716;9.124;2023-08-17T12:50:04;5.60;;;5.10;;
2488;SDS011;1255;48.716;9.124;2023-08-17T12:52:31;5.70;;;5.20;;
2488;SDS011;1255;48.716;9.124;2023-08-17T12:54:58;5.37;;;4.87;;
2488;SDS011;1255;48.716;9.124;2023-08-17T12:57:25;5.53;;;4.77;;
2488;SDS011;1255;48.716;9.124;2023-08-17T12:59:52;5.30;;;4.80;;
2488;SDS011;1255;48.716;9.124;2023-08-17T13:02:19;5.93;;;4.93;;
2488;SDS011;1255;48.716;9.124;2023-08-17T13:04:47;6.57;;;5.10;;
2488;SDS011;1255;48.716;9.124;2023-08-17T13:07:14;5.33;;;4.50;;
2488;SDS011;1255;48.716;9.124;2023-08-17T13:09:41;5.00;;;4.50;;
2488;SDS011;1255;48.716;9.124;2023-08-17T13:12:10;5.27;;;4.77;;
2488;SDS011;1255;48.716;9.124;2023-08-17T13:14:36;4.93;;;4.43;;
2488;SDS011;1255;48.716;9.124;2023-08-17T13:17:03;5.17;;;4.67;;
2488;SDS011;1255;48.716;9.124;2023-08-17T13:19:30;5.10;;;4.60;;
2488;SDS011;1255;48.716;9.124;2023-08-17T13:21:58;5.20;;;4.70;;
2488;SDS011;1255;48.716;9.124;2023-08-17T13:24:25;7.03;;;4.97;;
2488;SDS011;1255;48.716;9.124;2023-08-17T13:26:51;5.97;;;5.23;;
2488;SDS011;1255;48.716;9.124;2023-08-17T13:29:19;5.73;;;5.13;;
2488;SDS011;1255;48.716;9.124;2023-08-17T13:31:46;5.47;;;4.97;;
2488;SDS011;1255;48.716;9.124;2023-08-17T13:34:13;5.73;;;5.13;;
2488;SDS011;1255;48.716;9.124;2023-08-17T13:36:40;5.33;;;4.93;;
2488;SDS011;1255;48.716;9.124;2023-08-17T13:39:08;5.17;;;4.67;;
2488;SDS011;1255;48.716;9.124;2023-08-17T13:41:35;5.93;;;5.40;;
2488;SDS011;1255;48.716;9.124;2023-08-17T13:44:02;5.63;;;4.77;;
2488;SDS011;1255;48.716;9.124;2023-08-17T13:46:29;5.47;;;5.07;;
2488;SDS011;1255;48.716;9.124;2023-08-17T13:48:56;5.67;;;5.17;;
2488;SDS011;1255;48.716;9.124;2023-08-17T13:51:23;5.90;;;5.33;;
2488;SDS011;1255;48.716;9.124;2023-08-17T13:53:49;6.10;;;5.50;;
2488;SDS011;1255;48.716;9.124;2023-08-17T13:56:17;5.60;;;5.10;;
2488;SDS011;1255;48.716;9.124;2023-08-17T13:58:44;6.53;;;5.00;;
2488;SDS011;1255;48.716;9.124;2023-08-17T14:01:11;5.93;;;5.30;;
2488;SDS011;1255;48.716;9.124;2023-08-17T14:03:39;5.13;;;4.73;;
2488;SDS011;1255;48.716;9.124;2023-08-17T14:06:07;7.53;;;5.40;;
2488;SDS011;1255;48.716;9.124;2023-08-17T14:08:34;6.20;;;5.60;;
2488;SDS011;1255;48.716;9.124;2023-08-17T14:11:01;6.03;;;5.43;;
2488;SDS011;1255;48.716;9.124;2023-08-17T14:13:30;6.10;;;4.93;;
2488;SDS011;1255;48.716;9.124;2023-08-17T14:15:56;5.70;;;5.17;;
2488;SDS011;1255;48.716;9.124;2023-08-17T14:18:24;6.53;;;5.93;;
2488;SDS011;1255;48.716;9.124;2023-08-17T14:20:51;8.67;;;5.83;;
2488;SDS011;1255;48.716;9.124;2023-08-17T14:23:18;6.00;;;5.50;;
2488;SDS011;1255;48.716;9.124;2023-08-17T14:25:45;6.00;;;5.40;;
2488;SDS011;1255;48.716;9.124;2023-08-17T14:28:11;7.63;;;5.33;;
2488;SDS011;1255;48.716;9.124;2023-08-17T14:30:39;6.00;;;5.50;;
2488;SDS011;1255;48.716;9.124;2023-08-17T14:33:07;7.40;;;5.37;;
2488;SDS011;1255;48.716;9.124;2023-08-17T14:35:34;6.80;;;6.00;;
2488;SDS011;1255;48.716;9.124;2023-08-17T14:38:01;6.10;;;5.50;;
2488;SDS011;1255;48.716;9.124;2023-08-17T14:40:28;6.03;;;5.53;;
2488;SDS011;1255;48.716;9.124;2023-08-17T14:42:54;6.80;;;5.70;;
2488;SDS011;1255;48.716;9.124;2023-08-17T14:45:21;5.90;;;5.40;;
2488;SDS011;1255;48.716;9.124;2023-08-17T14:47:49;5.57;;;5.07;;
2488;SDS011;1255;48.716;9.124;2023-08-17T14:50:16;7.67;;;5.77;;
2488;SDS011;1255;48.716;9.124;2023-08-17T14:52:43;7.27;;;5.93;;
2488;SDS011;1255;48.716;9.124;2023-08-17T14:55:09;5.53;;;5.00;;
2488;SDS011;1255;48.716;9.124;2023-08-17T14:57:36;5.90;;;5.30;;
2488;SDS011;1255;48.716;9.124;2023-08-17T15:00:03;6.80;;;5.70;;
2488;SDS011;1255;48.716;9.124;2023-08-17T15:02:30;5.80;;;4.80;;
2488;SDS011;1255;48.716;9.124;2023-08-17T15:04:58;5.43;;;4.93;;
2488;SDS011;1255;48.716;9.124;2023-08-17T15:07:25;5.50;;;5.07;;
2488;SDS011;1255;48.716;9.124;2023-08-17T15:09:52;6.33;;;5.70;;
2488;SDS011;1255;48.716;9.124;2023-08-17T15:12:19;5.47;;;5.00;;
2488;SDS011;1255;48.716;9.124;2023-08-17T15:14:46;5.43;;;4.93;;
2488;SDS011;1255;48.716;9.124;2023-08-17T15:17:14;5.10;;;4.40;;